Impacts METAR Board
IDs:

KPIT - Pittsburgh Intl, PA, US

Updated at: 0800 UTC 25 May 2020
Potential Impact None Slight Moderate High
Time 24/20Z 24/21Z 24/22Z 24/23Z 25/00Z 25/01Z 25/02Z 25/03Z 25/04Z 25/05Z 25/06Z 25/07Z 25/08Z
Temp80 81 80 81 79 76 74 71 69 67 65 64 63
Dewpt64 64 63 62 63 63 63 62 61 61 60 60 60
Altim30.06 30.05 30.04 30.03 30.03 30.03 30.05 30.06 30.07 30.06 30.06 30.07 30.07
VIS10 10 10 10 10 10 10 10 10 10 10 10 10
CIG250 250 250 250 250 250 250 -- -- -- -- -- --
CoverBKNBKNBKNBKNBKNBKNBKNSCTSCTFEWFEWFEWFEW
FltCatVFRVFRVFRVFRVFRVFRVFRVFRVFRVFRVFRVFRVFR
WX--------------------------
WDir190150170190160160150150140150140110110
WSpd7 8 7 5 6 4 9 9 6 7 6 4 5
WGst-- -- -- -- -- -- -- -- -- -- -- -- --
Raw hourly METARs
KPIT 241951Z 19007KT 10SM SCT043 SCT110 BKN250 27/18 A3006 RMK AO2 SLP181 T02670178
KPIT 242051Z 15008KT 10SM SCT045 BKN250 27/18 A3005 RMK AO2 SLP176 T02720178 58013
KPIT 242151Z 17007KT 10SM FEW046 FEW130 BKN250 27/17 A3004 RMK AO2 SLP172 T02670172
KPIT 242251Z 19005KT 10SM FEW046 FEW130 BKN250 27/17 A3003 RMK AO2 SLP168 T02720167
KPIT 242351Z 16006KT 10SM FEW046 BKN250 26/17 A3003 RMK AO2 SLP170 T02610172 10272 20250 55005
KPIT 250051Z 16004KT 10SM BKN250 24/17 A3003 RMK AO2 SLP169 T02440172
KPIT 250151Z 15009KT 10SM BKN250 23/17 A3005 RMK AO2 SLP175 T02330172
KPIT 250251Z 15009KT 10SM SCT250 22/17 A3006 RMK AO2 SLP180 T02170167 53009
KPIT 250351Z 14006KT 10SM SCT250 21/16 A3007 RMK AO2 SLP181 T02060161
KPIT 250451Z 15007KT 10SM FEW250 19/16 A3006 RMK AO2 SLP177 T01940161 402720139
KPIT 250551Z 14006KT 10SM FEW250 18/16 A3006 RMK AO2 SLP179 T01830156 10261 20183 57001
KPIT 250651Z 11004KT 10SM FEW250 18/16 A3007 RMK AO2 SLP181 T01780156
KPIT 250751Z 11005KT 10SM FEW250 17/16 A3007 RMK AO2 SLP183 T01720156



Page loaded:  08:14 UTC  |   01:14 AM Pacific  |   02:14 AM Mountain  |   03:14 AM Central  |   04:14 AM Eastern

 

ADVISORIES

FORECASTS

FORECASTS

OBSERVATIONS

USER TOOLS

ABOUT US